createdAt,value
2019-03-28T00:01:22.715Z,18.83
2019-03-28T00:04:24.617Z,19.37
2019-03-28T00:07:27.240Z,18.83
2019-03-28T00:10:29.227Z,19.57
2019-03-28T00:13:31.119Z,19.33
2019-03-28T00:16:33.110Z,21.07
2019-03-28T00:19:35.059Z,19.87
2019-03-28T00:22:55.399Z,20.27
2019-03-28T00:25:57.279Z,22.90
2019-03-28T00:28:59.230Z,21.27
2019-03-28T00:32:01.107Z,20.10
2019-03-28T00:35:05.076Z,21.20
2019-03-28T00:38:06.933Z,22.03
2019-03-28T00:41:08.870Z,20.77
2019-03-28T00:44:10.785Z,21.53
2019-03-28T00:47:12.819Z,21.23
2019-03-28T00:50:15.017Z,20.17
2019-03-28T00:53:16.995Z,21.40
2019-03-28T00:56:18.911Z,20.73
2019-03-28T00:59:20.832Z,21.47
2019-03-28T01:02:22.712Z,21.90
2019-03-28T01:05:24.609Z,19.77
2019-03-28T01:08:26.608Z,21.00
2019-03-28T01:11:28.503Z,21.93
2019-03-28T01:14:30.414Z,22.10
2019-03-28T01:17:32.382Z,22.30
2019-03-28T01:20:34.303Z,21.93
2019-03-28T01:23:36.243Z,21.40
2019-03-28T01:26:38.082Z,20.93
2019-03-28T01:29:40.068Z,21.30
2019-03-28T01:32:41.943Z,23.20
2019-03-28T01:35:43.867Z,23.03
2019-03-28T01:38:45.701Z,21.17
2019-03-28T01:41:47.629Z,22.83
2019-03-28T01:44:49.494Z,22.57
2019-03-28T01:47:51.425Z,22.83
2019-03-28T01:50:53.470Z,22.83
2019-03-28T01:53:55.402Z,22.03
2019-03-28T01:57:10.006Z,22.13
2019-03-28T02:00:01.106Z,21.47
2019-03-28T02:03:03.014Z,22.20
2019-03-28T02:06:04.939Z,23.13
2019-03-28T02:09:06.902Z,22.73
2019-03-28T02:12:08.856Z,23.43
2019-03-28T02:15:11.060Z,22.87
2019-03-28T02:18:13.011Z,23.10
2019-03-28T02:21:15.002Z,21.80
2019-03-28T02:24:16.909Z,22.23
2019-03-28T02:27:24.169Z,22.87
2019-03-28T02:30:31.125Z,21.83
2019-03-28T02:33:33.055Z,23.07
2019-03-28T02:36:35.045Z,23.33
2019-03-28T02:39:36.928Z,20.93
2019-03-28T02:42:38.807Z,22.10
2019-03-28T02:45:40.664Z,21.10
2019-03-28T02:48:42.561Z,21.50
2019-03-28T02:51:44.594Z,22.37
2019-03-28T02:54:46.505Z,21.53
2019-03-28T02:57:48.374Z,22.43
2019-03-28T03:00:50.253Z,21.33
2019-03-28T03:03:52.111Z,22.77
2019-03-28T03:06:54.079Z,23.57
2019-03-28T03:09:56.109Z,23.10
2019-03-28T03:12:58.023Z,22.57
2019-03-28T03:16:00.093Z,22.10
2019-03-28T03:19:02.020Z,22.67
2019-03-28T03:22:03.956Z,24.00
2019-03-28T03:25:06.459Z,21.77
2019-03-28T03:28:08.299Z,23.13
2019-03-28T03:31:10.252Z,22.87
2019-03-28T03:34:12.203Z,22.23
2019-03-28T03:37:14.128Z,23.37
2019-03-28T03:40:16.118Z,23.43
2019-03-28T03:43:18.058Z,24.93
2019-03-28T03:46:19.974Z,22.50
2019-03-28T03:49:21.908Z,27.60
2019-03-28T03:52:23.969Z,24.47
2019-03-28T03:55:25.922Z,22.77
2019-03-28T03:58:27.811Z,25.40
2019-03-28T04:01:29.743Z,25.53
2019-03-28T04:04:31.654Z,25.27
2019-03-28T04:07:33.496Z,23.17
2019-03-28T04:10:35.763Z,26.10
2019-03-28T04:13:37.684Z,24.63
2019-03-28T04:16:39.579Z,23.43
2019-03-28T04:19:41.512Z,25.70
2019-03-28T04:22:43.471Z,26.10
2019-03-28T04:25:45.385Z,23.37
2019-03-28T04:28:47.260Z,24.60
2019-03-28T04:31:49.224Z,23.67
2019-03-28T04:34:51.196Z,23.73
2019-03-28T04:37:53.153Z,23.07
2019-03-28T04:40:55.045Z,23.23
2019-03-28T04:43:56.942Z,23.87
2019-03-28T04:46:59.972Z,23.43
2019-03-28T04:50:01.863Z,25.40
2019-03-28T04:53:03.859Z,22.63
2019-03-28T04:56:05.778Z,22.47
2019-03-28T04:59:07.643Z,24.80
2019-03-28T05:02:09.587Z,23.00
2019-03-28T05:05:11.523Z,23.93
2019-03-28T05:08:13.450Z,23.37
2019-03-28T05:11:15.576Z,24.63
2019-03-28T05:14:17.571Z,23.60
2019-03-28T05:17:19.473Z,23.73
2019-03-28T05:20:21.428Z,23.77
2019-03-28T05:23:23.503Z,23.40
2019-03-28T05:26:25.473Z,23.50
2019-03-28T05:29:27.391Z,22.53
2019-03-28T05:32:30.300Z,21.90
2019-03-28T05:35:32.244Z,21.40
2019-03-28T05:38:34.587Z,21.20
2019-03-28T05:41:36.755Z,22.27
2019-03-28T05:44:38.698Z,20.83
2019-03-28T05:47:40.615Z,21.20
2019-03-28T05:50:42.545Z,23.80
2019-03-28T05:53:44.669Z,20.53
2019-03-28T05:56:46.582Z,19.67
2019-03-28T05:59:48.502Z,18.03
2019-03-28T06:02:50.571Z,19.97
2019-03-28T06:05:52.741Z,19.57
2019-03-28T06:08:54.659Z,18.40
2019-03-28T06:11:57.031Z,18.77
2019-03-28T06:14:59.009Z,18.90
2019-03-28T06:18:00.953Z,17.53
2019-03-28T06:21:03.987Z,18.80
2019-03-28T06:24:05.924Z,19.97
2019-03-28T06:27:07.832Z,18.80
2019-03-28T06:30:10.328Z,18.63
2019-03-28T06:33:12.315Z,18.83
2019-03-28T06:36:14.412Z,18.37
2019-03-28T06:39:16.864Z,17.80
2019-03-28T06:42:18.791Z,18.07
2019-03-28T06:45:20.803Z,17.97
2019-03-28T06:48:22.701Z,17.37
2019-03-28T06:51:24.648Z,17.27
2019-03-28T06:54:26.791Z,17.70
2019-03-28T06:57:28.725Z,16.47
2019-03-28T07:00:30.659Z,16.77
2019-03-28T07:03:32.601Z,16.73
2019-03-28T07:06:34.475Z,16.23
2019-03-28T07:09:36.440Z,16.80
2019-03-28T07:12:38.864Z,15.37
2019-03-28T07:15:40.812Z,18.13
2019-03-28T07:18:42.707Z,17.93
2019-03-28T07:21:44.653Z,16.87
2019-03-28T07:24:46.643Z,16.63
2019-03-28T07:27:48.617Z,17.07
2019-03-28T07:30:50.517Z,17.83
2019-03-28T07:33:52.476Z,17.50
2019-03-28T07:36:54.368Z,16.33
2019-03-28T07:39:56.311Z,18.03
2019-03-28T07:42:58.171Z,14.50
2019-03-28T07:46:00.180Z,14.40
2019-03-28T07:49:02.114Z,14.37
2019-03-28T07:52:04.081Z,14.70
2019-03-28T07:55:06.707Z,14.40
2019-03-28T07:58:09.192Z,14.60
2019-03-28T08:01:11.341Z,13.97
2019-03-28T08:04:13.425Z,12.97
2019-03-28T08:07:15.327Z,11.90
2019-03-28T08:10:17.296Z,12.43
2019-03-28T08:13:19.580Z,12.40
2019-03-28T08:16:21.552Z,11.33
2019-03-28T08:19:23.486Z,12.63
2019-03-28T08:22:25.421Z,10.67
2019-03-28T08:25:27.413Z,11.23
2019-03-28T08:28:29.321Z,11.33
2019-03-28T08:31:31.300Z,10.27
2019-03-28T08:34:33.240Z,10.23
2019-03-28T08:37:35.999Z,12.10
2019-03-28T08:40:41.369Z,9.57
2019-03-28T08:43:43.277Z,9.83
2019-03-28T08:46:45.210Z,9.10
2019-03-28T08:49:47.109Z,8.40
2019-03-28T08:52:49.080Z,9.57
2019-03-28T08:55:51.270Z,9.33
2019-03-28T08:58:53.234Z,9.00
2019-03-28T09:01:55.140Z,8.87
2019-03-28T09:04:57.155Z,7.13
2019-03-28T09:07:59.633Z,8.60
2019-03-28T09:11:01.606Z,7.80
2019-03-28T09:14:04.090Z,7.70
2019-03-28T09:17:06.065Z,8.40
2019-03-28T09:20:08.490Z,15.20
2019-03-28T09:23:10.414Z,2.57
2019-03-28T09:26:12.374Z,15.83
2019-03-28T09:29:14.374Z,27.17
2019-03-28T09:32:16.357Z,27.60
2019-03-28T09:35:29.252Z,25.23
2019-03-28T09:38:31.322Z,18.13
2019-03-28T09:41:33.261Z,27.07
2019-03-28T09:44:35.150Z,18.33
2019-03-28T09:47:37.121Z,6.10
2019-03-28T09:50:39.020Z,2.30
2019-03-28T09:53:41.041Z,4.17
2019-03-28T09:56:43.076Z,4.57
2019-03-28T09:59:45.079Z,4.20
2019-03-28T10:02:47.038Z,5.30
2019-03-28T10:05:49.039Z,11.57
2019-03-28T10:08:50.970Z,13.77
2019-03-28T10:11:52.922Z,14.57
2019-03-28T10:14:55.277Z,7.43
2019-03-28T10:17:57.226Z,5.37
2019-03-28T10:20:59.190Z,6.57
2019-03-28T10:24:01.111Z,7.93
2019-03-28T10:27:03.065Z,5.30
2019-03-28T10:30:07.679Z,4.67
2019-03-28T10:33:10.677Z,10.63
2019-03-28T10:36:12.636Z,6.97
2019-03-28T10:39:14.579Z,10.00
2019-03-28T10:42:16.507Z,5.60
2019-03-28T10:45:18.420Z,6.70
2019-03-28T10:48:23.378Z,13.93
2019-03-28T10:51:24.219Z,7.03
2019-03-28T10:54:26.223Z,6.50
2019-03-28T10:57:30.281Z,8.03
2019-03-28T11:00:32.422Z,6.33
2019-03-28T11:03:34.361Z,5.03
2019-03-28T11:06:36.305Z,5.87
2019-03-28T11:09:38.221Z,6.37
2019-03-28T11:12:40.193Z,9.17
2019-03-28T11:15:42.543Z,6.20
2019-03-28T11:18:44.462Z,5.37
2019-03-28T11:21:46.502Z,8.20
2019-03-28T11:24:48.441Z,7.50
2019-03-28T11:27:50.358Z,7.80
2019-03-28T11:30:52.407Z,5.70
2019-03-28T11:33:54.304Z,7.20
2019-03-28T11:36:56.394Z,9.80
2019-03-28T11:39:58.319Z,19.43
2019-03-28T11:43:00.779Z,20.43
2019-03-28T11:46:02.883Z,19.50
2019-03-28T11:49:04.883Z,11.80
2019-03-28T11:52:06.785Z,10.33
2019-03-28T11:55:08.898Z,23.13
2019-03-28T11:58:11.640Z,10.90
2019-03-28T12:01:13.993Z,10.40
2019-03-28T12:04:15.939Z,9.80
2019-03-28T12:07:17.952Z,12.37
2019-03-28T12:10:19.915Z,7.77
2019-03-28T12:13:21.843Z,9.40
2019-03-28T12:16:24.000Z,14.17
2019-03-28T12:19:26.026Z,14.63
2019-03-28T12:22:27.990Z,7.00
2019-03-28T12:25:30.000Z,6.60
2019-03-28T12:28:32.011Z,11.43
2019-03-28T12:31:33.991Z,35.60
2019-03-28T12:34:35.953Z,10.23
2019-03-28T12:37:38.985Z,25.07
2019-03-28T12:40:40.970Z,9.50
2019-03-28T12:43:42.979Z,50.33
2019-03-28T12:46:45.083Z,8.60
2019-03-28T12:49:47.087Z,8.93
2019-03-28T12:52:48.986Z,79.67
2019-03-28T12:55:50.952Z,90.57
2019-03-28T12:58:52.969Z,50.37
2019-03-28T13:01:55.246Z,24.83
2019-03-28T13:04:57.629Z,24.30
2019-03-28T13:07:59.587Z,23.43
2019-03-28T13:11:01.499Z,29.90
2019-03-28T13:14:03.398Z,11.77
2019-03-28T13:17:05.754Z,10.83
2019-03-28T13:20:09.440Z,32.27
2019-03-28T13:23:12.677Z,7.63
2019-03-28T13:26:14.592Z,6.90
2019-03-28T13:29:16.585Z,5.03
2019-03-28T13:32:18.586Z,5.37
2019-03-28T13:35:20.554Z,5.27
2019-03-28T13:38:22.547Z,16.03
2019-03-28T13:41:24.430Z,6.90
2019-03-28T13:44:26.380Z,16.30
2019-03-28T13:47:28.313Z,7.50
2019-03-28T13:50:30.280Z,7.07
2019-03-28T13:53:39.246Z,6.63
2019-03-28T13:56:38.511Z,19.00
2019-03-28T13:59:41.294Z,7.33
2019-03-28T14:02:54.870Z,8.10
2019-03-28T14:05:47.139Z,6.40
2019-03-28T14:08:49.101Z,6.97
2019-03-28T14:11:51.054Z,7.00
2019-03-28T14:14:53.224Z,7.97
2019-03-28T14:17:56.697Z,8.33
2019-03-28T14:20:58.679Z,10.90
2019-03-28T14:24:00.576Z,11.30
2019-03-28T14:27:02.517Z,10.13
2019-03-28T14:30:09.445Z,10.80
2019-03-28T14:33:13.011Z,10.63
2019-03-28T14:36:15.730Z,12.60
2019-03-28T14:39:17.662Z,12.90
2019-03-28T14:42:20.089Z,11.07
2019-03-28T14:45:22.339Z,11.87
2019-03-28T14:48:24.259Z,14.63
2019-03-28T14:51:26.280Z,12.47
2019-03-28T14:54:28.415Z,13.57
2019-03-28T14:57:31.964Z,15.87
2019-03-28T15:00:40.799Z,18.40
2019-03-28T15:03:42.729Z,17.27
2019-03-28T15:06:44.628Z,14.93
2019-03-28T15:09:46.547Z,15.60
2019-03-28T15:12:48.483Z,15.43
2019-03-28T15:15:50.483Z,12.07
2019-03-28T15:18:52.429Z,13.03
2019-03-28T15:21:54.395Z,20.27
2019-03-28T15:24:57.790Z,16.80
2019-03-28T15:28:00.108Z,14.27
2019-03-28T15:31:02.077Z,12.97
2019-03-28T15:34:03.982Z,11.00
2019-03-28T15:37:05.963Z,11.03
2019-03-28T15:40:09.120Z,13.13
2019-03-28T15:43:11.033Z,12.17
2019-03-28T15:46:16.068Z,13.73
2019-03-28T15:49:18.046Z,12.97
2019-03-28T15:52:20.081Z,13.33
2019-03-28T15:55:21.994Z,14.70
2019-03-28T15:58:24.028Z,13.23
2019-03-28T16:01:26.154Z,62.63
2019-03-28T16:04:28.077Z,69.97
2019-03-28T16:07:29.986Z,62.13
2019-03-28T16:10:31.908Z,28.93
2019-03-28T16:13:33.875Z,30.30
2019-03-28T16:16:35.847Z,13.40
2019-03-28T16:19:37.837Z,9.83
2019-03-28T16:22:39.931Z,9.50
2019-03-28T16:25:43.001Z,11.33
2019-03-28T16:28:44.956Z,20.30
2019-03-28T16:31:46.869Z,15.77
2019-03-28T16:34:48.883Z,16.93
2019-03-28T16:37:51.179Z,19.50
2019-03-28T16:40:53.691Z,19.33
2019-03-28T16:43:55.634Z,19.70
2019-03-28T16:46:57.602Z,32.23
2019-03-28T16:49:59.526Z,32.73
2019-03-28T16:53:01.512Z,17.27
2019-03-28T16:56:04.325Z,32.10
2019-03-28T16:59:06.315Z,37.53
2019-03-28T17:02:08.373Z,27.50
2019-03-28T17:05:10.360Z,32.07
2019-03-28T17:08:13.970Z,37.03
2019-03-28T17:11:16.973Z,49.10
2019-03-28T17:14:18.948Z,39.63
2019-03-28T17:17:22.386Z,27.27
2019-03-28T17:20:26.832Z,36.63
2019-03-28T17:23:28.845Z,23.63
2019-03-28T17:26:31.853Z,20.97
2019-03-28T17:29:34.660Z,21.27
2019-03-28T17:32:37.292Z,21.70
2019-03-28T17:35:40.876Z,27.37
2019-03-28T17:38:42.821Z,24.47
2019-03-28T17:41:45.127Z,25.57
2019-03-28T17:44:47.085Z,24.67
2019-03-28T17:47:50.504Z,26.90
2019-03-28T17:50:52.433Z,32.50
2019-03-28T17:53:56.155Z,34.77
2019-03-28T17:56:58.269Z,26.90
2019-03-28T18:00:00.479Z,32.50
2019-03-28T18:03:09.163Z,24.17
2019-03-28T18:06:06.644Z,24.87
2019-03-28T18:09:11.068Z,27.97
2019-03-28T18:12:14.432Z,39.40
2019-03-28T18:15:18.148Z,27.93
2019-03-28T18:18:20.257Z,25.33
2019-03-28T18:21:23.380Z,27.37
2019-03-28T18:24:25.365Z,22.47
2019-03-28T18:27:27.278Z,21.23
2019-03-28T18:30:29.219Z,22.80
2019-03-28T18:33:33.233Z,21.90
2019-03-28T18:36:36.631Z,21.70
2019-03-28T18:39:38.794Z,24.77
2019-03-28T18:42:42.710Z,25.47
2019-03-28T18:45:46.483Z,26.33
2019-03-28T18:48:48.483Z,32.53
2019-03-28T18:51:50.368Z,35.77
2019-03-28T18:54:55.507Z,39.40
2019-03-28T18:57:59.960Z,34.60
2019-03-28T19:01:05.126Z,34.77
2019-03-28T19:04:07.456Z,35.37
2019-03-28T19:07:10.003Z,35.03
2019-03-28T19:10:12.794Z,34.33
2019-03-28T19:13:16.884Z,36.10
2019-03-28T19:16:21.598Z,35.73
2019-03-28T19:19:38.349Z,36.53
2019-03-28T19:22:28.731Z,34.40
2019-03-28T19:25:30.724Z,39.03
2019-03-28T19:28:34.418Z,42.67
2019-03-28T19:31:36.397Z,58.33
2019-03-28T19:34:43.857Z,71.20
2019-03-28T19:37:45.948Z,65.80
2019-03-28T19:40:48.553Z,70.43
2019-03-28T19:43:52.343Z,67.23
2019-03-28T19:46:57.228Z,83.83
2019-03-28T19:49:59.266Z,88.87
2019-03-28T19:53:02.361Z,83.67
2019-03-28T19:56:05.788Z,39.60
2019-03-28T19:59:09.205Z,33.03
2019-03-28T20:02:14.208Z,36.30
2019-03-28T20:05:18.368Z,46.83
2019-03-28T20:08:20.369Z,45.60
2019-03-28T20:11:22.584Z,47.20
2019-03-28T20:14:24.668Z,41.33
2019-03-28T20:17:27.693Z,48.17
2019-03-28T20:20:29.661Z,53.83
2019-03-28T20:23:35.388Z,67.17
2019-03-28T20:26:36.564Z,89.50
2019-03-28T20:29:39.945Z,81.97
2019-03-28T20:32:42.769Z,112.20
2019-03-28T20:35:45.386Z,84.50
2019-03-28T20:38:53.308Z,51.87
2019-03-28T20:41:51.242Z,72.30
2019-03-28T20:44:55.001Z,70.37
2019-03-28T20:47:56.923Z,41.83
2019-03-28T20:51:03.431Z,37.23
2019-03-28T20:54:07.744Z,33.70
2019-03-28T20:57:09.984Z,33.97
2019-03-28T21:00:13.248Z,34.23
2019-03-28T21:03:17.013Z,38.43
2019-03-28T21:06:20.987Z,35.67
2019-03-28T21:09:23.037Z,36.00
2019-03-28T21:12:24.951Z,41.60
2019-03-28T21:15:26.928Z,49.07
2019-03-28T21:18:28.831Z,57.77
2019-03-28T21:21:31.020Z,64.23
2019-03-28T21:24:33.248Z,67.00
2019-03-28T21:27:35.230Z,66.30
2019-03-28T21:30:47.202Z,71.13
2019-03-28T21:33:41.010Z,80.90
2019-03-28T21:36:43.346Z,86.90
2019-03-28T21:39:45.333Z,84.43
2019-03-28T21:42:47.249Z,85.90
2019-03-28T21:45:49.188Z,81.57
2019-03-28T21:48:51.109Z,78.50
2019-03-28T21:51:53.093Z,66.97
2019-03-28T21:54:54.994Z,69.93
2019-03-28T21:57:56.930Z,62.27
2019-03-28T22:01:00.682Z,61.87
2019-03-28T22:04:02.692Z,59.97
2019-03-28T22:07:05.933Z,54.07
2019-03-28T22:10:09.253Z,47.57
2019-03-28T22:13:12.344Z,45.13
2019-03-28T22:16:14.467Z,49.13
2019-03-28T22:19:16.366Z,51.83
2019-03-28T22:22:18.328Z,45.47
2019-03-28T22:25:20.634Z,49.23
2019-03-28T22:28:22.573Z,50.50
2019-03-28T22:31:24.508Z,50.33
2019-03-28T22:34:26.494Z,47.90
2019-03-28T22:37:28.886Z,49.57
2019-03-28T22:40:31.249Z,49.40
2019-03-28T22:43:33.298Z,49.90
2019-03-28T22:46:39.169Z,50.80
2019-03-28T22:49:39.115Z,46.93
2019-03-28T22:52:41.052Z,47.73
2019-03-28T22:55:42.934Z,46.53
2019-03-28T22:58:44.936Z,49.13
2019-03-28T23:01:46.835Z,48.60
2019-03-28T23:04:48.768Z,47.63
2019-03-28T23:07:50.794Z,45.73
2019-03-28T23:10:52.768Z,48.00
2019-03-28T23:13:54.675Z,44.13
2019-03-28T23:16:56.587Z,44.93
2019-03-28T23:19:58.522Z,46.57
2019-03-28T23:23:00.449Z,47.50
2019-03-28T23:26:02.449Z,48.80
2019-03-28T23:29:04.446Z,49.10
2019-03-28T23:32:06.367Z,48.70
2019-03-28T23:35:08.506Z,50.13
2019-03-28T23:38:10.473Z,49.67
2019-03-28T23:41:12.456Z,52.27
2019-03-28T23:44:14.318Z,53.33
2019-03-28T23:47:16.258Z,53.23
2019-03-28T23:50:18.137Z,54.93
2019-03-28T23:53:20.076Z,52.70
2019-03-28T23:56:22.008Z,52.07
2019-03-28T23:59:23.943Z,51.30
